sensor_id;sensor_type;location;lat;lon;timestamp;P1;durP1;ratioP1;P2;durP2;ratioP2
53299;SDS011;39187;48.476;8.310;2022-08-19T00:02:23;21.00;;;19.00;;
53299;SDS011;39187;48.476;8.310;2022-08-19T00:04:48;20.67;;;18.57;;
53299;SDS011;39187;48.476;8.310;2022-08-19T00:07:17;20.20;;;17.90;;
53299;SDS011;39187;48.476;8.310;2022-08-19T00:09:44;18.00;;;16.40;;
53299;SDS011;39187;48.476;8.310;2022-08-19T00:12:10;20.87;;;18.90;;
53299;SDS011;39187;48.476;8.310;2022-08-19T00:14:36;21.30;;;19.17;;
53299;SDS011;39187;48.476;8.310;2022-08-19T00:17:03;20.97;;;18.73;;
53299;SDS011;39187;48.476;8.310;2022-08-19T00:19:31;24.77;;;20.13;;
53299;SDS011;39187;48.476;8.310;2022-08-19T00:21:58;21.83;;;19.60;;
53299;SDS011;39187;48.476;8.310;2022-08-19T00:24:24;22.43;;;18.77;;
53299;SDS011;39187;48.476;8.310;2022-08-19T00:26:51;20.73;;;18.57;;
53299;SDS011;39187;48.476;8.310;2022-08-19T00:29:18;21.17;;;18.80;;
53299;SDS011;39187;48.476;8.310;2022-08-19T00:31:45;19.80;;;17.67;;
53299;SDS011;39187;48.476;8.310;2022-08-19T00:34:12;18.73;;;16.93;;
53299;SDS011;39187;48.476;8.310;2022-08-19T00:36:39;24.40;;;19.70;;
53299;SDS011;39187;48.476;8.310;2022-08-19T00:39:06;20.30;;;18.33;;
53299;SDS011;39187;48.476;8.310;2022-08-19T00:41:32;21.10;;;18.87;;
53299;SDS011;39187;48.476;8.310;2022-08-19T00:46:28;21.40;;;19.23;;
53299;SDS011;39187;48.476;8.310;2022-08-19T00:48:55;22.47;;;18.90;;
53299;SDS011;39187;48.476;8.310;2022-08-19T00:51:23;22.47;;;20.03;;
53299;SDS011;39187;48.476;8.310;2022-08-19T00:53:54;19.80;;;17.80;;
53299;SDS011;39187;48.476;8.310;2022-08-19T00:56:22;20.57;;;17.53;;
53299;SDS011;39187;48.476;8.310;2022-08-19T00:58:48;22.87;;;20.53;;
53299;SDS011;39187;48.476;8.310;2022-08-19T01:01:14;21.20;;;18.60;;
53299;SDS011;39187;48.476;8.310;2022-08-19T01:03:41;20.93;;;18.77;;
53299;SDS011;39187;48.476;8.310;2022-08-19T01:06:07;23.20;;;20.30;;
53299;SDS011;39187;48.476;8.310;2022-08-19T01:08:33;27.93;;;21.57;;
53299;SDS011;39187;48.476;8.310;2022-08-19T01:10:59;25.00;;;22.30;;
53299;SDS011;39187;48.476;8.310;2022-08-19T01:13:29;28.37;;;22.47;;
53299;SDS011;39187;48.476;8.310;2022-08-19T01:15:59;33.80;;;25.03;;
53299;SDS011;39187;48.476;8.310;2022-08-19T01:18:28;28.13;;;25.00;;
53299;SDS011;39187;48.476;8.310;2022-08-19T01:20:56;35.70;;;25.87;;
53299;SDS011;39187;48.476;8.310;2022-08-19T01:23:26;31.00;;;23.97;;
53299;SDS011;39187;48.476;8.310;2022-08-19T01:26:08;30.90;;;25.03;;
53299;SDS011;39187;48.476;8.310;2022-08-19T01:28:36;28.23;;;25.07;;
53299;SDS011;39187;48.476;8.310;2022-08-19T01:31:02;27.73;;;24.50;;
53299;SDS011;39187;48.476;8.310;2022-08-19T01:33:28;28.47;;;23.90;;
53299;SDS011;39187;48.476;8.310;2022-08-19T01:36:06;27.83;;;21.67;;
53299;SDS011;39187;48.476;8.310;2022-08-19T01:38:35;30.03;;;24.00;;
53299;SDS011;39187;48.476;8.310;2022-08-19T01:41:02;29.93;;;24.37;;
53299;SDS011;39187;48.476;8.310;2022-08-19T01:43:28;29.10;;;22.43;;
53299;SDS011;39187;48.476;8.310;2022-08-19T01:45:53;24.87;;;22.10;;
53299;SDS011;39187;48.476;8.310;2022-08-19T01:48:19;23.93;;;21.33;;
53299;SDS011;39187;48.476;8.310;2022-08-19T01:50:45;22.60;;;20.40;;
53299;SDS011;39187;48.476;8.310;2022-08-19T01:53:10;23.10;;;19.10;;
53299;SDS011;39187;48.476;8.310;2022-08-19T01:55:38;23.60;;;21.23;;
53299;SDS011;39187;48.476;8.310;2022-08-19T01:58:06;21.17;;;18.73;;
53299;SDS011;39187;48.476;8.310;2022-08-19T02:00:38;24.97;;;20.90;;
53299;SDS011;39187;48.476;8.310;2022-08-19T02:03:04;25.87;;;21.80;;
53299;SDS011;39187;48.476;8.310;2022-08-19T02:05:29;22.50;;;19.83;;
53299;SDS011;39187;48.476;8.310;2022-08-19T02:07:55;27.53;;;22.90;;
53299;SDS011;39187;48.476;8.310;2022-08-19T02:10:22;22.80;;;20.50;;
53299;SDS011;39187;48.476;8.310;2022-08-19T02:12:48;23.80;;;21.30;;
53299;SDS011;39187;48.476;8.310;2022-08-19T02:15:15;25.47;;;22.40;;
53299;SDS011;39187;48.476;8.310;2022-08-19T02:17:41;26.80;;;22.40;;
53299;SDS011;39187;48.476;8.310;2022-08-19T02:20:07;24.60;;;21.93;;
53299;SDS011;39187;48.476;8.310;2022-08-19T02:22:34;29.87;;;26.40;;
53299;SDS011;39187;48.476;8.310;2022-08-19T02:25:00;26.17;;;23.23;;
53299;SDS011;39187;48.476;8.310;2022-08-19T02:27:26;27.13;;;24.23;;
53299;SDS011;39187;48.476;8.310;2022-08-19T02:29:52;27.77;;;24.83;;
53299;SDS011;39187;48.476;8.310;2022-08-19T02:32:18;28.57;;;25.57;;
53299;SDS011;39187;48.476;8.310;2022-08-19T02:34:45;26.83;;;24.13;;
53299;SDS011;39187;48.476;8.310;2022-08-19T02:37:12;26.80;;;23.90;;
53299;SDS011;39187;48.476;8.310;2022-08-19T02:39:57;26.07;;;22.53;;
53299;SDS011;39187;48.476;8.310;2022-08-19T02:42:23;30.07;;;25.43;;
53299;SDS011;39187;48.476;8.310;2022-08-19T02:44:49;31.60;;;28.20;;
53299;SDS011;39187;48.476;8.310;2022-08-19T02:47:15;33.70;;;26.40;;
53299;SDS011;39187;48.476;8.310;2022-08-19T02:49:41;33.37;;;26.73;;
53299;SDS011;39187;48.476;8.310;2022-08-19T02:52:06;32.23;;;27.47;;
53299;SDS011;39187;48.476;8.310;2022-08-19T02:54:32;28.97;;;26.07;;
53299;SDS011;39187;48.476;8.310;2022-08-19T02:56:58;31.23;;;26.80;;
53299;SDS011;39187;48.476;8.310;2022-08-19T02:59:23;30.77;;;27.17;;
53299;SDS011;39187;48.476;8.310;2022-08-19T03:01:51;32.03;;;27.97;;
53299;SDS011;39187;48.476;8.310;2022-08-19T03:04:17;31.97;;;28.20;;
53299;SDS011;39187;48.476;8.310;2022-08-19T03:06:45;27.67;;;24.97;;
53299;SDS011;39187;48.476;8.310;2022-08-19T03:09:12;30.00;;;26.80;;
53299;SDS011;39187;48.476;8.310;2022-08-19T03:11:39;27.97;;;25.07;;
53299;SDS011;39187;48.476;8.310;2022-08-19T03:14:05;32.87;;;28.10;;
53299;SDS011;39187;48.476;8.310;2022-08-19T03:16:33;33.47;;;29.37;;
53299;SDS011;39187;48.476;8.310;2022-08-19T03:19:06;33.00;;;29.40;;
53299;SDS011;39187;48.476;8.310;2022-08-19T03:21:33;32.30;;;28.87;;
53299;SDS011;39187;48.476;8.310;2022-08-19T03:24:03;36.83;;;31.73;;
53299;SDS011;39187;48.476;8.310;2022-08-19T03:26:32;34.27;;;30.57;;
53299;SDS011;39187;48.476;8.310;2022-08-19T03:29:01;34.17;;;28.97;;
53299;SDS011;39187;48.476;8.310;2022-08-19T03:31:27;34.07;;;29.93;;
53299;SDS011;39187;48.476;8.310;2022-08-19T03:33:53;28.50;;;25.60;;
53299;SDS011;39187;48.476;8.310;2022-08-19T03:36:20;33.13;;;27.67;;
53299;SDS011;39187;48.476;8.310;2022-08-19T03:38:54;32.07;;;28.67;;
53299;SDS011;39187;48.476;8.310;2022-08-19T03:41:23;31.10;;;27.83;;
53299;SDS011;39187;48.476;8.310;2022-08-19T03:43:50;29.63;;;26.90;;
53299;SDS011;39187;48.476;8.310;2022-08-19T03:46:18;29.70;;;26.60;;
53299;SDS011;39187;48.476;8.310;2022-08-19T03:48:46;28.83;;;25.93;;
53299;SDS011;39187;48.476;8.310;2022-08-19T03:51:17;33.37;;;28.60;;
53299;SDS011;39187;48.476;8.310;2022-08-19T03:53:44;32.43;;;29.13;;
53299;SDS011;39187;48.476;8.310;2022-08-19T03:56:10;30.57;;;27.23;;
53299;SDS011;39187;48.476;8.310;2022-08-19T03:58:37;31.67;;;28.40;;
53299;SDS011;39187;48.476;8.310;2022-08-19T04:01:06;29.53;;;26.63;;
53299;SDS011;39187;48.476;8.310;2022-08-19T04:03:33;32.10;;;28.23;;
53299;SDS011;39187;48.476;8.310;2022-08-19T04:06:08;29.87;;;26.73;;
53299;SDS011;39187;48.476;8.310;2022-08-19T04:08:47;29.77;;;26.57;;
53299;SDS011;39187;48.476;8.310;2022-08-19T04:11:15;31.00;;;27.73;;
53299;SDS011;39187;48.476;8.310;2022-08-19T04:13:43;30.90;;;27.23;;
53299;SDS011;39187;48.476;8.310;2022-08-19T04:16:09;31.70;;;28.57;;
53299;SDS011;39187;48.476;8.310;2022-08-19T04:18:37;33.07;;;29.17;;
53299;SDS011;39187;48.476;8.310;2022-08-19T04:21:04;29.40;;;25.90;;
53299;SDS011;39187;48.476;8.310;2022-08-19T04:23:30;35.07;;;29.67;;
53299;SDS011;39187;48.476;8.310;2022-08-19T04:25:56;30.97;;;27.67;;
53299;SDS011;39187;48.476;8.310;2022-08-19T04:28:23;44.00;;;31.70;;
53299;SDS011;39187;48.476;8.310;2022-08-19T04:30:50;35.43;;;30.40;;
53299;SDS011;39187;48.476;8.310;2022-08-19T04:33:19;33.33;;;29.53;;
53299;SDS011;39187;48.476;8.310;2022-08-19T04:35:48;35.10;;;30.07;;
53299;SDS011;39187;48.476;8.310;2022-08-19T04:38:15;35.60;;;28.97;;
53299;SDS011;39187;48.476;8.310;2022-08-19T04:40:44;36.03;;;31.10;;
53299;SDS011;39187;48.476;8.310;2022-08-19T04:43:30;34.87;;;30.80;;
53299;SDS011;39187;48.476;8.310;2022-08-19T04:45:57;36.40;;;31.40;;
53299;SDS011;39187;48.476;8.310;2022-08-19T04:48:23;47.10;;;34.00;;
53299;SDS011;39187;48.476;8.310;2022-08-19T04:50:53;38.87;;;32.83;;
53299;SDS011;39187;48.476;8.310;2022-08-19T04:53:23;31.70;;;28.33;;
53299;SDS011;39187;48.476;8.310;2022-08-19T04:55:50;42.87;;;34.47;;
53299;SDS011;39187;48.476;8.310;2022-08-19T04:58:16;45.93;;;34.80;;
53299;SDS011;39187;48.476;8.310;2022-08-19T05:00:42;43.67;;;34.40;;
53299;SDS011;39187;48.476;8.310;2022-08-19T05:03:08;41.83;;;31.40;;
53299;SDS011;39187;48.476;8.310;2022-08-19T05:05:37;42.53;;;33.40;;
53299;SDS011;39187;48.476;8.310;2022-08-19T05:08:04;41.93;;;34.07;;
53299;SDS011;39187;48.476;8.310;2022-08-19T05:10:30;41.70;;;32.63;;
53299;SDS011;39187;48.476;8.310;2022-08-19T05:12:56;47.37;;;36.83;;
53299;SDS011;39187;48.476;8.310;2022-08-19T05:15:22;45.67;;;34.23;;
53299;SDS011;39187;48.476;8.310;2022-08-19T05:17:48;46.27;;;34.97;;
53299;SDS011;39187;48.476;8.310;2022-08-19T05:20:32;50.83;;;37.27;;
53299;SDS011;39187;48.476;8.310;2022-08-19T05:23:16;51.37;;;36.90;;
53299;SDS011;39187;48.476;8.310;2022-08-19T05:25:42;55.03;;;39.13;;
53299;SDS011;39187;48.476;8.310;2022-08-19T05:28:08;57.53;;;38.80;;
53299;SDS011;39187;48.476;8.310;2022-08-19T05:30:34;50.50;;;37.10;;
53299;SDS011;39187;48.476;8.310;2022-08-19T05:32:59;51.90;;;40.43;;
53299;SDS011;39187;48.476;8.310;2022-08-19T05:35:25;58.47;;;41.63;;
53299;SDS011;39187;48.476;8.310;2022-08-19T05:37:50;52.67;;;37.17;;
53299;SDS011;39187;48.476;8.310;2022-08-19T05:40:19;55.73;;;39.93;;
53299;SDS011;39187;48.476;8.310;2022-08-19T05:42:44;57.87;;;39.93;;
53299;SDS011;39187;48.476;8.310;2022-08-19T05:45:11;54.17;;;38.93;;
53299;SDS011;39187;48.476;8.310;2022-08-19T05:47:36;56.73;;;39.30;;
53299;SDS011;39187;48.476;8.310;2022-08-19T05:50:02;62.17;;;42.37;;
53299;SDS011;39187;48.476;8.310;2022-08-19T05:52:29;54.50;;;38.73;;
53299;SDS011;39187;48.476;8.310;2022-08-19T05:54:55;58.27;;;40.57;;
53299;SDS011;39187;48.476;8.310;2022-08-19T05:57:21;51.73;;;38.17;;
53299;SDS011;39187;48.476;8.310;2022-08-19T05:59:47;54.70;;;38.43;;
53299;SDS011;39187;48.476;8.310;2022-08-19T06:02:13;51.40;;;39.13;;
53299;SDS011;39187;48.476;8.310;2022-08-19T06:04:39;54.90;;;39.50;;
53299;SDS011;39187;48.476;8.310;2022-08-19T06:07:07;55.07;;;36.40;;
53299;SDS011;39187;48.476;8.310;2022-08-19T06:09:33;51.00;;;35.00;;
53299;SDS011;39187;48.476;8.310;2022-08-19T06:12:00;47.70;;;35.87;;
53299;SDS011;39187;48.476;8.310;2022-08-19T06:14:28;50.80;;;36.33;;
53299;SDS011;39187;48.476;8.310;2022-08-19T06:16:56;47.67;;;34.27;;
53299;SDS011;39187;48.476;8.310;2022-08-19T06:19:25;57.47;;;36.20;;
53299;SDS011;39187;48.476;8.310;2022-08-19T06:21:51;53.57;;;37.40;;
53299;SDS011;39187;48.476;8.310;2022-08-19T06:24:19;51.23;;;37.80;;
53299;SDS011;39187;48.476;8.310;2022-08-19T06:26:49;51.50;;;35.83;;
53299;SDS011;39187;48.476;8.310;2022-08-19T06:29:18;45.07;;;33.63;;
53299;SDS011;39187;48.476;8.310;2022-08-19T06:31:47;49.70;;;35.80;;
53299;SDS011;39187;48.476;8.310;2022-08-19T06:34:17;45.03;;;32.80;;
53299;SDS011;39187;48.476;8.310;2022-08-19T06:36:44;48.50;;;35.70;;
53299;SDS011;39187;48.476;8.310;2022-08-19T06:39:16;50.07;;;35.07;;
53299;SDS011;39187;48.476;8.310;2022-08-19T06:41:44;50.67;;;38.57;;
53299;SDS011;39187;48.476;8.310;2022-08-19T06:44:12;48.03;;;36.20;;
53299;SDS011;39187;48.476;8.310;2022-08-19T06:46:39;49.90;;;33.90;;
53299;SDS011;39187;48.476;8.310;2022-08-19T06:49:06;51.07;;;36.40;;
53299;SDS011;39187;48.476;8.310;2022-08-19T06:51:34;41.37;;;32.00;;
53299;SDS011;39187;48.476;8.310;2022-08-19T06:54:00;47.47;;;34.83;;
53299;SDS011;39187;48.476;8.310;2022-08-19T06:56:28;39.63;;;33.13;;
53299;SDS011;39187;48.476;8.310;2022-08-19T06:59:04;46.10;;;34.70;;
53299;SDS011;39187;48.476;8.310;2022-08-19T07:01:39;41.93;;;33.67;;
53299;SDS011;39187;48.476;8.310;2022-08-19T07:04:08;49.47;;;36.50;;
53299;SDS011;39187;48.476;8.310;2022-08-19T07:06:34;45.13;;;34.93;;
53299;SDS011;39187;48.476;8.310;2022-08-19T07:09:02;48.40;;;36.00;;
53299;SDS011;39187;48.476;8.310;2022-08-19T07:11:30;38.50;;;31.50;;
53299;SDS011;39187;48.476;8.310;2022-08-19T07:13:56;47.13;;;35.13;;
53299;SDS011;39187;48.476;8.310;2022-08-19T07:16:21;45.13;;;34.27;;
53299;SDS011;39187;48.476;8.310;2022-08-19T07:18:48;41.07;;;32.37;;
53299;SDS011;39187;48.476;8.310;2022-08-19T07:21:16;40.57;;;29.50;;
53299;SDS011;39187;48.476;8.310;2022-08-19T07:23:44;41.40;;;32.27;;
53299;SDS011;39187;48.476;8.310;2022-08-19T07:26:19;50.20;;;33.63;;
53299;SDS011;39187;48.476;8.310;2022-08-19T07:28:47;40.27;;;33.00;;
53299;SDS011;39187;48.476;8.310;2022-08-19T07:31:15;39.90;;;31.90;;
53299;SDS011;39187;48.476;8.310;2022-08-19T07:33:43;43.67;;;31.90;;
53299;SDS011;39187;48.476;8.310;2022-08-19T07:36:12;48.37;;;33.50;;
53299;SDS011;39187;48.476;8.310;2022-08-19T07:38:43;40.97;;;30.10;;
53299;SDS011;39187;48.476;8.310;2022-08-19T07:41:13;42.70;;;30.90;;
53299;SDS011;39187;48.476;8.310;2022-08-19T07:43:42;40.87;;;32.60;;
53299;SDS011;39187;48.476;8.310;2022-08-19T07:46:09;35.97;;;28.90;;
53299;SDS011;39187;48.476;8.310;2022-08-19T07:48:35;41.97;;;30.97;;
53299;SDS011;39187;48.476;8.310;2022-08-19T07:51:04;42.40;;;31.33;;
53299;SDS011;39187;48.476;8.310;2022-08-19T07:53:31;39.80;;;29.37;;
53299;SDS011;39187;48.476;8.310;2022-08-19T07:55:58;37.00;;;28.97;;
53299;SDS011;39187;48.476;8.310;2022-08-19T07:58:35;36.33;;;29.40;;
53299;SDS011;39187;48.476;8.310;2022-08-19T08:01:03;35.80;;;29.30;;
53299;SDS011;39187;48.476;8.310;2022-08-19T08:03:31;36.47;;;29.47;;
53299;SDS011;39187;48.476;8.310;2022-08-19T08:06:15;34.27;;;29.80;;
53299;SDS011;39187;48.476;8.310;2022-08-19T08:09:00;41.30;;;31.23;;
53299;SDS011;39187;48.476;8.310;2022-08-19T08:11:51;35.87;;;27.50;;
53299;SDS011;39187;48.476;8.310;2022-08-19T08:14:20;32.53;;;29.10;;
53299;SDS011;39187;48.476;8.310;2022-08-19T08:16:50;39.07;;;29.20;;
53299;SDS011;39187;48.476;8.310;2022-08-19T08:19:17;33.60;;;28.43;;
53299;SDS011;39187;48.476;8.310;2022-08-19T08:21:44;34.90;;;28.20;;
53299;SDS011;39187;48.476;8.310;2022-08-19T08:24:10;29.77;;;25.30;;
53299;SDS011;39187;48.476;8.310;2022-08-19T08:26:37;33.43;;;29.67;;
53299;SDS011;39187;48.476;8.310;2022-08-19T08:29:03;31.80;;;27.40;;
53299;SDS011;39187;48.476;8.310;2022-08-19T08:31:29;35.33;;;28.73;;
53299;SDS011;39187;48.476;8.310;2022-08-19T08:33:54;31.07;;;26.40;;
53299;SDS011;39187;48.476;8.310;2022-08-19T08:36:20;29.83;;;25.70;;
53299;SDS011;39187;48.476;8.310;2022-08-19T08:38:46;30.27;;;26.37;;
53299;SDS011;39187;48.476;8.310;2022-08-19T08:43:53;28.83;;;25.90;;
53299;SDS011;39187;48.476;8.310;2022-08-19T08:46:32;31.93;;;25.20;;
53299;SDS011;39187;48.476;8.310;2022-08-19T08:49:04;26.40;;;23.60;;
53299;SDS011;39187;48.476;8.310;2022-08-19T08:51:35;25.43;;;22.83;;
53299;SDS011;39187;48.476;8.310;2022-08-19T08:54:13;27.87;;;25.07;;
53299;SDS011;39187;48.476;8.310;2022-08-19T08:56:43;24.30;;;22.00;;
53299;SDS011;39187;48.476;8.310;2022-08-19T09:01:51;24.80;;;22.07;;
53299;SDS011;39187;48.476;8.310;2022-08-19T09:04:17;23.70;;;21.30;;
53299;SDS011;39187;48.476;8.310;2022-08-19T09:09:26;22.13;;;20.03;;
53299;SDS011;39187;48.476;8.310;2022-08-19T09:14:50;20.30;;;18.50;;
53299;SDS011;39187;48.476;8.310;2022-08-19T09:17:21;22.37;;;20.07;;
53299;SDS011;39187;48.476;8.310;2022-08-19T09:22:47;23.40;;;21.10;;
53299;SDS011;39187;48.476;8.310;2022-08-19T09:25:15;21.90;;;19.60;;
53299;SDS011;39187;48.476;8.310;2022-08-19T09:27:43;24.83;;;22.30;;
53299;SDS011;39187;48.476;8.310;2022-08-19T09:30:11;19.97;;;18.27;;
53299;SDS011;39187;48.476;8.310;2022-08-19T09:32:42;22.17;;;19.80;;
53299;SDS011;39187;48.476;8.310;2022-08-19T09:35:09;19.47;;;17.63;;
53299;SDS011;39187;48.476;8.310;2022-08-19T09:37:36;21.17;;;18.97;;
53299;SDS011;39187;48.476;8.310;2022-08-19T09:40:02;20.03;;;17.60;;
53299;SDS011;39187;48.476;8.310;2022-08-19T09:42:28;21.17;;;18.17;;
53299;SDS011;39187;48.476;8.310;2022-08-19T09:44:53;18.20;;;16.37;;
53299;SDS011;39187;48.476;8.310;2022-08-19T09:47:19;18.40;;;16.80;;
53299;SDS011;39187;48.476;8.310;2022-08-19T09:49:44;15.93;;;14.40;;
53299;SDS011;39187;48.476;8.310;2022-08-19T09:52:10;16.17;;;14.77;;
53299;SDS011;39187;48.476;8.310;2022-08-19T09:54:37;15.93;;;14.43;;
53299;SDS011;39187;48.476;8.310;2022-08-19T09:57:03;16.13;;;15.07;;
53299;SDS011;39187;48.476;8.310;2022-08-19T09:59:30;16.03;;;14.67;;
53299;SDS011;39187;48.476;8.310;2022-08-19T10:01:56;13.50;;;12.43;;
53299;SDS011;39187;48.476;8.310;2022-08-19T10:04:22;14.87;;;13.77;;
53299;SDS011;39187;48.476;8.310;2022-08-19T10:06:48;15.20;;;13.80;;
53299;SDS011;39187;48.476;8.310;2022-08-19T10:09:17;13.17;;;12.27;;
53299;SDS011;39187;48.476;8.310;2022-08-19T10:11:43;15.53;;;14.00;;
53299;SDS011;39187;48.476;8.310;2022-08-19T10:14:15;16.90;;;15.30;;
53299;SDS011;39187;48.476;8.310;2022-08-19T10:16:42;14.30;;;13.07;;
53299;SDS011;39187;48.476;8.310;2022-08-19T10:19:08;16.17;;;14.90;;
53299;SDS011;39187;48.476;8.310;2022-08-19T10:21:34;16.20;;;14.80;;
53299;SDS011;39187;48.476;8.310;2022-08-19T10:24:02;19.47;;;17.77;;
53299;SDS011;39187;48.476;8.310;2022-08-19T10:26:34;21.33;;;18.97;;
53299;SDS011;39187;48.476;8.310;2022-08-19T10:29:02;22.10;;;20.13;;
53299;SDS011;39187;48.476;8.310;2022-08-19T10:31:31;20.10;;;18.30;;
53299;SDS011;39187;48.476;8.310;2022-08-19T10:33:58;20.70;;;19.00;;
53299;SDS011;39187;48.476;8.310;2022-08-19T10:36:25;22.87;;;20.87;;
53299;SDS011;39187;48.476;8.310;2022-08-19T10:38:54;20.93;;;19.17;;
53299;SDS011;39187;48.476;8.310;2022-08-19T10:41:24;22.73;;;20.73;;
53299;SDS011;39187;48.476;8.310;2022-08-19T10:43:53;23.23;;;21.30;;
53299;SDS011;39187;48.476;8.310;2022-08-19T10:46:20;23.77;;;21.50;;
53299;SDS011;39187;48.476;8.310;2022-08-19T10:48:47;24.07;;;21.90;;
53299;SDS011;39187;48.476;8.310;2022-08-19T10:51:14;24.23;;;21.70;;
53299;SDS011;39187;48.476;8.310;2022-08-19T10:53:59;23.00;;;20.73;;
53299;SDS011;39187;48.476;8.310;2022-08-19T10:56:26;25.27;;;23.03;;
53299;SDS011;39187;48.476;8.310;2022-08-19T10:59:10;24.27;;;21.87;;
53299;SDS011;39187;48.476;8.310;2022-08-19T11:01:38;24.60;;;22.23;;
53299;SDS011;39187;48.476;8.310;2022-08-19T11:04:05;23.30;;;20.83;;
53299;SDS011;39187;48.476;8.310;2022-08-19T11:06:33;25.97;;;23.57;;
53299;SDS011;39187;48.476;8.310;2022-08-19T11:08:59;23.13;;;21.10;;
53299;SDS011;39187;48.476;8.310;2022-08-19T11:11:25;24.93;;;22.53;;
53299;SDS011;39187;48.476;8.310;2022-08-19T11:13:51;26.83;;;24.13;;
53299;SDS011;39187;48.476;8.310;2022-08-19T11:16:22;27.00;;;24.47;;
53299;SDS011;39187;48.476;8.310;2022-08-19T11:18:54;24.93;;;22.80;;
53299;SDS011;39187;48.476;8.310;2022-08-19T11:21:30;27.47;;;24.73;;
53299;SDS011;39187;48.476;8.310;2022-08-19T11:24:00;24.90;;;22.57;;
53299;SDS011;39187;48.476;8.310;2022-08-19T11:26:28;24.33;;;22.23;;
53299;SDS011;39187;48.476;8.310;2022-08-19T11:28:56;22.40;;;20.40;;
53299;SDS011;39187;48.476;8.310;2022-08-19T11:31:24;23.93;;;21.77;;
53299;SDS011;39187;48.476;8.310;2022-08-19T11:33:52;27.60;;;25.10;;
53299;SDS011;39187;48.476;8.310;2022-08-19T11:36:19;26.70;;;24.33;;
53299;SDS011;39187;48.476;8.310;2022-08-19T11:38:46;29.70;;;26.70;;
53299;SDS011;39187;48.476;8.310;2022-08-19T11:41:16;31.33;;;28.20;;
53299;SDS011;39187;48.476;8.310;2022-08-19T11:43:44;27.37;;;24.97;;
53299;SDS011;39187;48.476;8.310;2022-08-19T11:46:12;25.70;;;23.10;;
53299;SDS011;39187;48.476;8.310;2022-08-19T11:48:40;30.17;;;27.47;;
53299;SDS011;39187;48.476;8.310;2022-08-19T11:51:08;32.47;;;29.10;;
53299;SDS011;39187;48.476;8.310;2022-08-19T11:53:37;29.77;;;26.57;;
53299;SDS011;39187;48.476;8.310;2022-08-19T11:56:06;27.90;;;25.30;;
53299;SDS011;39187;48.476;8.310;2022-08-19T11:58:33;27.07;;;24.63;;
53299;SDS011;39187;48.476;8.310;2022-08-19T12:00:59;28.60;;;25.80;;
53299;SDS011;39187;48.476;8.310;2022-08-19T12:03:25;26.60;;;24.07;;
53299;SDS011;39187;48.476;8.310;2022-08-19T12:05:51;24.43;;;22.30;;
53299;SDS011;39187;48.476;8.310;2022-08-19T12:08:17;23.33;;;21.20;;
53299;SDS011;39187;48.476;8.310;2022-08-19T12:10:43;23.70;;;21.70;;
53299;SDS011;39187;48.476;8.310;2022-08-19T12:13:11;25.37;;;22.77;;
53299;SDS011;39187;48.476;8.310;2022-08-19T12:15:40;20.80;;;18.77;;
53299;SDS011;39187;48.476;8.310;2022-08-19T12:18:06;24.50;;;22.20;;
53299;SDS011;39187;48.476;8.310;2022-08-19T12:20:38;22.77;;;20.67;;
53299;SDS011;39187;48.476;8.310;2022-08-19T12:23:05;23.30;;;21.10;;
53299;SDS011;39187;48.476;8.310;2022-08-19T12:25:31;23.27;;;21.00;;
53299;SDS011;39187;48.476;8.310;2022-08-19T12:27:58;21.30;;;19.17;;
53299;SDS011;39187;48.476;8.310;2022-08-19T12:30:24;21.43;;;19.30;;
53299;SDS011;39187;48.476;8.310;2022-08-19T12:32:50;19.17;;;17.60;;
53299;SDS011;39187;48.476;8.310;2022-08-19T12:35:16;20.40;;;18.70;;
53299;SDS011;39187;48.476;8.310;2022-08-19T12:37:42;22.37;;;20.30;;
53299;SDS011;39187;48.476;8.310;2022-08-19T12:40:10;20.47;;;18.87;;
53299;SDS011;39187;48.476;8.310;2022-08-19T12:42:37;18.20;;;16.67;;
53299;SDS011;39187;48.476;8.310;2022-08-19T12:45:10;19.73;;;17.90;;
53299;SDS011;39187;48.476;8.310;2022-08-19T12:47:37;19.33;;;17.40;;
53299;SDS011;39187;48.476;8.310;2022-08-19T12:50:04;18.27;;;16.87;;
53299;SDS011;39187;48.476;8.310;2022-08-19T12:52:33;20.57;;;18.97;;
53299;SDS011;39187;48.476;8.310;2022-08-19T12:55:01;20.37;;;18.63;;
53299;SDS011;39187;48.476;8.310;2022-08-19T12:57:29;20.90;;;19.07;;
53299;SDS011;39187;48.476;8.310;2022-08-19T12:59:58;22.43;;;20.43;;
53299;SDS011;39187;48.476;8.310;2022-08-19T13:02:36;23.13;;;20.80;;
53299;SDS011;39187;48.476;8.310;2022-08-19T13:05:03;18.57;;;16.87;;
53299;SDS011;39187;48.476;8.310;2022-08-19T13:07:31;16.63;;;15.37;;
53299;SDS011;39187;48.476;8.310;2022-08-19T13:09:57;17.23;;;15.83;;
53299;SDS011;39187;48.476;8.310;2022-08-19T13:12:22;18.17;;;16.57;;
53299;SDS011;39187;48.476;8.310;2022-08-19T13:14:52;20.07;;;18.47;;
53299;SDS011;39187;48.476;8.310;2022-08-19T13:17:18;19.47;;;17.63;;
53299;SDS011;39187;48.476;8.310;2022-08-19T13:19:43;19.63;;;17.83;;
53299;SDS011;39187;48.476;8.310;2022-08-19T13:22:09;19.00;;;17.40;;
53299;SDS011;39187;48.476;8.310;2022-08-19T13:24:35;18.03;;;16.63;;
53299;SDS011;39187;48.476;8.310;2022-08-19T13:27:01;18.73;;;17.13;;
53299;SDS011;39187;48.476;8.310;2022-08-19T13:29:27;19.33;;;17.83;;
53299;SDS011;39187;48.476;8.310;2022-08-19T13:32:12;17.97;;;16.57;;
53299;SDS011;39187;48.476;8.310;2022-08-19T13:34:56;16.17;;;14.77;;
53299;SDS011;39187;48.476;8.310;2022-08-19T13:37:21;17.50;;;16.30;;
53299;SDS011;39187;48.476;8.310;2022-08-19T13:40:06;17.83;;;16.00;;
53299;SDS011;39187;48.476;8.310;2022-08-19T13:42:36;16.83;;;15.73;;
53299;SDS011;39187;48.476;8.310;2022-08-19T13:45:02;13.63;;;12.73;;
53299;SDS011;39187;48.476;8.310;2022-08-19T13:47:28;16.27;;;15.10;;
53299;SDS011;39187;48.476;8.310;2022-08-19T13:49:53;15.50;;;14.47;;
53299;SDS011;39187;48.476;8.310;2022-08-19T13:52:19;19.77;;;17.80;;
53299;SDS011;39187;48.476;8.310;2022-08-19T13:54:44;19.73;;;17.93;;
53299;SDS011;39187;48.476;8.310;2022-08-19T13:57:10;18.60;;;17.07;;
53299;SDS011;39187;48.476;8.310;2022-08-19T13:59:35;17.07;;;15.63;;
53299;SDS011;39187;48.476;8.310;2022-08-19T14:02:01;16.53;;;15.33;;
53299;SDS011;39187;48.476;8.310;2022-08-19T14:04:26;16.67;;;15.47;;
53299;SDS011;39187;48.476;8.310;2022-08-19T14:06:52;17.73;;;16.10;;
53299;SDS011;39187;48.476;8.310;2022-08-19T14:09:18;16.60;;;15.27;;
53299;SDS011;39187;48.476;8.310;2022-08-19T14:11:43;13.50;;;12.63;;
53299;SDS011;39187;48.476;8.310;2022-08-19T14:14:11;16.50;;;15.27;;
53299;SDS011;39187;48.476;8.310;2022-08-19T14:16:37;15.13;;;14.10;;
53299;SDS011;39187;48.476;8.310;2022-08-19T14:19:03;18.30;;;16.60;;
53299;SDS011;39187;48.476;8.310;2022-08-19T14:21:28;17.50;;;16.17;;
53299;SDS011;39187;48.476;8.310;2022-08-19T14:23:54;18.00;;;16.53;;
53299;SDS011;39187;48.476;8.310;2022-08-19T14:26:20;18.73;;;16.87;;
53299;SDS011;39187;48.476;8.310;2022-08-19T14:28:46;16.87;;;15.53;;
53299;SDS011;39187;48.476;8.310;2022-08-19T14:31:13;16.83;;;15.63;;
53299;SDS011;39187;48.476;8.310;2022-08-19T14:33:47;17.53;;;16.27;;
53299;SDS011;39187;48.476;8.310;2022-08-19T14:36:13;16.20;;;14.93;;
53299;SDS011;39187;48.476;8.310;2022-08-19T14:38:39;17.67;;;16.10;;
53299;SDS011;39187;48.476;8.310;2022-08-19T14:41:26;19.80;;;18.00;;
53299;SDS011;39187;48.476;8.310;2022-08-19T14:43:52;20.93;;;19.03;;